Time;durP1;ratioP1;P1;durP2;ratioP2;P2;SDS_P1;SDS_P2;PMS_P1;PMS_P2;Temp;Humidity;BMP_temperature;BMP_pressure;BME280_temperature;BME280_humidity;BME280_pressure;Samples;Min_cycle;Max_cycle;Signal;HPM_P1;HPM_P2
2022/12/20 00:02:37;;;;;;;20.92;11.60;;;;;;;;;;21078922;28;20467;-60
2022/12/20 00:12:39;;;;;;;21.33;12.75;;;;;;;;;;21079276;28;20499;-62
2022/12/20 00:22:41;;;;;;;22.65;13.20;;;;;;;;;;21078584;28;20055;-61
2022/12/20 00:32:43;;;;;;;22.17;11.60;;;;;;;;;;21078754;28;20052;-61
2022/12/20 00:42:45;;;;;;;21.13;12.27;;;;;;;;;;21077884;28;20452;-60
2022/12/20 00:52:48;;;;;;;22.13;12.75;;;;;;;;;;21078137;28;20048;-61
2022/12/20 01:02:50;;;;;;;20.52;12.00;;;;;;;;;;21076596;28;20440;-62
2022/12/20 01:12:52;;;;;;;21.27;12.20;;;;;;;;;;21090637;28;20472;-61
2022/12/20 01:22:54;;;;;;;24.02;11.80;;;;;;;;;;21091330;28;20400;-61
2022/12/20 01:32:56;;;;;;;21.23;11.25;;;;;;;;;;21089635;28;20055;-61
2022/12/20 01:42:58;;;;;;;21.27;11.95;;;;;;;;;;21070630;28;20048;-61
2022/12/20 01:53:03;;;;;;;20.50;12.10;;;;;;;;;;21088111;28;20048;-61
2022/12/20 02:03:06;;;;;;;17.70;10.60;;;;;;;;;;21087345;28;20052;-62
2022/12/20 02:13:13;;;;;;;18.40;10.98;;;;;;;;;;21086287;28;20052;-61
2022/12/20 02:23:34;;;;;;;22.10;11.57;;;;;;;;;;21086082;28;20044;-61
2022/12/20 02:33:36;;;;;;;23.20;11.75;;;;;;;;;;21084880;28;20072;-62
2022/12/20 02:54:01;;;;;;;19.85;11.88;;;;;;;;;;21083227;28;20052;-62
2022/12/20 03:04:19;;;;;;;18.60;10.43;;;;;;;;;;21081907;28;20052;-62
2022/12/20 03:14:27;;;;;;;19.77;11.55;;;;;;;;;;21081507;28;20048;-61
2022/12/20 03:24:36;;;;;;;19.03;11.20;;;;;;;;;;21081816;28;20059;-61
2022/12/20 03:34:39;;;;;;;18.42;10.57;;;;;;;;;;21080353;28;20510;-60
2022/12/20 03:44:42;;;;;;;24.17;11.18;;;;;;;;;;21079463;28;20040;-60
2022/12/20 03:54:45;;;;;;;19.20;10.73;;;;;;;;;;21079263;28;20487;-61
2022/12/20 04:04:48;;;;;;;20.10;10.10;;;;;;;;;;21078820;28;20048;-62
2022/12/20 04:14:52;;;;;;;19.70;11.05;;;;;;;;;;21079393;28;20071;-62
2022/12/20 04:24:57;;;;;;;18.92;10.27;;;;;;;;;;21080884;28;20083;-60
2022/12/20 04:35:01;;;;;;;16.98;9.88;;;;;;;;;;21081203;28;20055;-62
2022/12/20 04:45:04;;;;;;;20.90;10.68;;;;;;;;;;21090593;28;20512;-60
2022/12/20 04:55:21;;;;;;;18.35;9.68;;;;;;;;;;21092424;28;20048;-61
2022/12/20 05:05:24;;;;;;;17.73;10.43;;;;;;;;;;21092854;28;20078;-61
2022/12/20 05:15:28;;;;;;;18.65;9.90;;;;;;;;;;21092418;28;20044;-62
2022/12/20 05:26:16;;;;;;;18.45;10.60;;;;;;;;;;21090985;28;20055;-63
2022/12/20 05:36:12;;;;;;;19.90;10.60;;;;;;;;;;21078014;28;20105;-62
2022/12/20 05:46:14;;;;;;;21.02;10.93;;;;;;;;;;21088674;28;20408;-61
2022/12/20 05:56:17;;;;;;;21.33;10.82;;;;;;;;;;21087622;28;20044;-61
2022/12/20 06:06:19;;;;;;;17.92;10.65;;;;;;;;;;21086253;28;20135;-60
2022/12/20 06:16:22;;;;;;;18.90;10.85;;;;;;;;;;21086135;28;20082;-58
2022/12/20 06:26:24;;;;;;;21.85;10.13;;;;;;;;;;21086388;28;20476;-61
2022/12/20 06:36:26;;;;;;;18.05;9.48;;;;;;;;;;21085264;28;20078;-63
2022/12/20 06:46:28;;;;;;;16.38;9.98;;;;;;;;;;21084702;28;20541;-61
2022/12/20 06:56:29;;;;;;;24.08;11.50;;;;;;;;;;21083955;28;20044;-59
2022/12/20 07:06:31;;;;;;;22.02;11.50;;;;;;;;;;21081891;28;20117;-61
2022/12/20 07:16:33;;;;;;;41.67;23.45;;;;;;;;;;21080985;28;20051;-61
2022/12/20 07:26:35;;;;;;;28.38;15.90;;;;;;;;;;21080892;28;20054;-63
2022/12/20 07:36:37;;;;;;;21.98;12.32;;;;;;;;;;21080829;28;20056;-63
2022/12/20 07:46:38;;;;;;;17.17;10.90;;;;;;;;;;21079887;28;20389;-63
2022/12/20 07:56:42;;;;;;;19.92;11.35;;;;;;;;;;21079203;28;20045;-62
2022/12/20 08:06:45;;;;;;;21.60;11.63;;;;;;;;;;21079133;28;20126;-62
2022/12/20 08:16:47;;;;;;;30.65;12.32;;;;;;;;;;21087181;28;20437;-62
2022/12/20 08:26:49;;;;;;;23.98;11.48;;;;;;;;;;21096530;28;20541;-61
2022/12/20 08:36:51;;;;;;;29.40;14.38;;;;;;;;;;21094307;28;20052;-62
2022/12/20 08:46:53;;;;;;;25.20;13.60;;;;;;;;;;21093630;28;20052;-64
2022/12/20 08:56:55;;;;;;;32.85;13.02;;;;;;;;;;21092321;28;20055;-64
2022/12/20 09:06:57;;;;;;;25.60;11.18;;;;;;;;;;21092188;28;20548;-63
2022/12/20 09:16:59;;;;;;;21.27;9.80;;;;;;;;;;21091494;28;20056;-63
2022/12/20 09:27:01;;;;;;;17.35;10.00;;;;;;;;;;21089542;28;20044;-61
2022/12/20 09:37:02;;;;;;;13.90;8.20;;;;;;;;;;21089604;28;20040;-63
2022/12/20 09:47:10;;;;;;;22.27;9.30;;;;;;;;;;21089450;28;20504;-62
2022/12/20 09:57:33;;;;;;;19.52;8.00;;;;;;;;;;21087922;28;20517;-61
2022/12/20 10:07:49;;;;;;;15.98;9.27;;;;;;;;;;21087499;28;20509;-62
2022/12/20 10:17:54;;;;;;;12.93;6.63;;;;;;;;;;21086686;28;20094;-71
2022/12/20 10:27:56;;;;;;;11.63;7.10;;;;;;;;;;21068714;28;20127;-71
2022/12/20 10:38:00;;;;;;;11.82;6.15;;;;;;;;;;21115198;28;20123;-66
2022/12/20 10:48:03;;;;;;;12.75;7.82;;;;;;;;;;21168433;28;20097;-59
2022/12/20 10:58:25;;;;;;;20.48;9.68;;;;;;;;;;21167196;28;20131;-59
2022/12/20 11:08:29;;;;;;;19.13;8.77;;;;;;;;;;21149817;28;20138;-61
2022/12/20 11:18:31;;;;;;;21.30;8.93;;;;;;;;;;21166468;28;20052;-60
2022/12/20 11:28:51;;;;;;;16.20;8.55;;;;;;;;;;21165522;28;20411;-60
2022/12/20 11:39:02;;;;;;;10.13;4.63;;;;;;;;;;21166402;28;20548;-69
2022/12/20 11:49:10;;;;;;;13.45;5.60;;;;;;;;;;21162833;28;20537;-64
2022/12/20 11:59:18;;;;;;;14.93;7.55;;;;;;;;;;21163167;28;20055;-59
2022/12/20 12:09:23;;;;;;;16.27;7.82;;;;;;;;;;21163437;28;20055;-60
2022/12/20 12:19:26;;;;;;;14.93;7.40;;;;;;;;;;21163007;28;20407;-59
2022/12/20 12:29:29;;;;;;;18.95;8.35;;;;;;;;;;21162316;28;20093;-60
2022/12/20 12:39:46;;;;;;;23.02;8.18;;;;;;;;;;21161157;28;20044;-60
2022/12/20 12:49:49;;;;;;;11.25;7.18;;;;;;;;;;21161309;28;20381;-61
2022/12/20 12:59:51;;;;;;;13.80;7.72;;;;;;;;;;21162650;28;20059;-60
2022/12/20 13:09:54;;;;;;;12.27;7.75;;;;;;;;;;21175794;28;20051;-60
2022/12/20 13:19:56;;;;;;;16.73;7.75;;;;;;;;;;21175210;28;20113;-60
2022/12/20 13:30:10;;;;;;;21.90;10.05;;;;;;;;;;21173641;28;20098;-61
2022/12/20 13:40:33;;;;;;;13.15;7.57;;;;;;;;;;21174250;28;20055;-60
2022/12/20 13:50:39;;;;;;;16.45;8.82;;;;;;;;;;21156597;28;20054;-60
2022/12/20 14:00:42;;;;;;;19.60;9.45;;;;;;;;;;21154687;28;20052;-59
2022/12/20 14:10:44;;;;;;;15.85;9.10;;;;;;;;;;21171723;28;20051;-60
2022/12/20 14:20:48;;;;;;;16.40;10.15;;;;;;;;;;21170620;28;20039;-60
2022/12/20 14:30:50;;;;;;;16.65;9.35;;;;;;;;;;21169461;28;20091;-60
2022/12/20 14:40:52;;;;;;;17.95;9.55;;;;;;;;;;21168886;28;20044;-59
2022/12/20 14:50:55;;;;;;;22.38;9.27;;;;;;;;;;21168334;28;20044;-62
2022/12/20 15:01:02;;;;;;;15.77;8.88;;;;;;;;;;21167782;28;20058;-61
2022/12/20 15:11:10;;;;;;;16.80;8.77;;;;;;;;;;21166697;28;20087;-61
2022/12/20 15:21:14;;;;;;;24.00;11.60;;;;;;;;;;21166870;28;20050;-61
2022/12/20 15:31:19;;;;;;;21.58;12.57;;;;;;;;;;21164871;28;20502;-61
2022/12/20 15:41:23;;;;;;;24.25;12.50;;;;;;;;;;21165851;28;20044;-61
2022/12/20 15:51:35;;;;;;;27.90;13.40;;;;;;;;;;21163761;28;20048;-61
2022/12/20 16:01:38;;;;;;;26.30;13.77;;;;;;;;;;21163053;28;20047;-62
2022/12/20 16:11:41;;;;;;;28.88;14.65;;;;;;;;;;21163463;28;20456;-60
2022/12/20 16:21:46;;;;;;;26.10;13.63;;;;;;;;;;21162640;28;20502;-59
2022/12/20 16:31:48;;;;;;;24.05;13.52;;;;;;;;;;21164569;28;20472;-62
2022/12/20 16:41:50;;;;;;;27.90;11.90;;;;;;;;;;21176671;28;20040;-62
2022/12/20 16:51:52;;;;;;;22.60;12.20;;;;;;;;;;21178202;28;20070;-61
2022/12/20 17:01:55;;;;;;;21.42;11.05;;;;;;;;;;21177228;28;20075;-62
2022/12/20 17:11:59;;;;;;;19.60;11.48;;;;;;;;;;21175871;28;20083;-62
2022/12/20 17:22:01;;;;;;;20.75;11.77;;;;;;;;;;21176246;28;20498;-59
2022/12/20 17:32:16;;;;;;;19.98;11.93;;;;;;;;;;21175605;28;20058;-60
2022/12/20 17:42:18;;;;;;;23.25;12.48;;;;;;;;;;21175023;28;20530;-60
2022/12/20 17:52:20;;;;;;;18.70;12.20;;;;;;;;;;21172730;28;20058;-61
2022/12/20 18:02:24;;;;;;;17.83;12.02;;;;;;;;;;21171986;28;20544;-60
2022/12/20 18:12:26;;;;;;;20.98;11.82;;;;;;;;;;21171493;28;20058;-60
2022/12/20 18:22:30;;;;;;;29.05;14.13;;;;;;;;;;21171024;28;20460;-61
2022/12/20 18:32:32;;;;;;;22.50;13.23;;;;;;;;;;21169609;28;20052;-62
2022/12/20 18:42:35;;;;;;;22.45;12.63;;;;;;;;;;21169032;28;20039;-60
2022/12/20 18:52:40;;;;;;;18.50;10.57;;;;;;;;;;21168068;28;20054;-60
2022/12/20 19:02:42;;;;;;;20.00;11.25;;;;;;;;;;21131510;28;20083;-60
2022/12/20 19:12:44;;;;;;;21.23;14.30;;;;;;;;;;21165852;28;20439;-61
2022/12/20 19:22:47;;;;;;;20.15;12.10;;;;;;;;;;21165529;28;20097;-59
2022/12/20 19:32:49;;;;;;;22.90;13.02;;;;;;;;;;21165824;28;20075;-59
2022/12/20 19:42:51;;;;;;;27.02;15.23;;;;;;;;;;21164187;28;20411;-59
2022/12/20 19:52:52;;;;;;;23.65;12.88;;;;;;;;;;21163827;28;20063;-59
2022/12/20 20:02:54;;;;;;;18.05;11.65;;;;;;;;;;21162672;28;20065;-59
2022/12/20 20:12:56;;;;;;;22.08;12.32;;;;;;;;;;21177956;28;20051;-61
2022/12/20 20:22:59;;;;;;;19.40;11.57;;;;;;;;;;21172385;28;20051;-59
2022/12/20 20:33:01;;;;;;;23.80;12.27;;;;;;;;;;21190200;28;20130;-60
2022/12/20 20:43:04;;;;;;;22.48;13.13;;;;;;;;;;21189135;28;20051;-61
2022/12/20 20:53:06;;;;;;;27.92;15.30;;;;;;;;;;21189781;28;20510;-60
2022/12/20 21:03:10;;;;;;;22.42;11.30;;;;;;;;;;21189257;28;20075;-60
2022/12/20 21:13:12;;;;;;;19.08;10.98;;;;;;;;;;21189273;28;20047;-60
2022/12/20 21:23:15;;;;;;;24.73;12.45;;;;;;;;;;21182832;28;20044;-59
2022/12/20 21:33:18;;;;;;;23.85;12.68;;;;;;;;;;21174915;28;20403;-60
2022/12/20 21:43:21;;;;;;;30.60;14.23;;;;;;;;;;21173332;28;20047;-60
2022/12/20 21:53:24;;;;;;;29.00;14.00;;;;;;;;;;21173970;28;20405;-60
2022/12/20 22:03:26;;;;;;;27.38;13.52;;;;;;;;;;21172431;28;20056;-60
2022/12/20 22:13:37;;;;;;;24.45;13.32;;;;;;;;;;21171229;28;20043;-61
2022/12/20 22:23:45;;;;;;;27.03;13.53;;;;;;;;;;21171409;28;20048;-61
2022/12/20 22:33:56;;;;;;;30.92;14.80;;;;;;;;;;21171339;28;20047;-60
2022/12/20 22:43:59;;;;;;;27.40;13.50;;;;;;;;;;21169259;28;20058;-59
2022/12/20 22:54:01;;;;;;;28.35;14.05;;;;;;;;;;21167821;28;20489;-59
2022/12/20 23:04:04;;;;;;;27.92;14.32;;;;;;;;;;21166395;28;20058;-60
2022/12/20 23:24:30;;;;;;;30.15;14.90;;;;;;;;;;21166602;28;20051;-59
2022/12/20 23:34:33;;;;;;;30.23;14.52;;;;;;;;;;21165562;28;20442;-59
2022/12/20 23:44:36;;;;;;;39.33;14.60;;;;;;;;;;21164658;28;20093;-59
2022/12/20 23:54:38;;;;;;;43.45;13.05;;;;;;;;;;21165379;28;20072;-58
